sensor_id;sensor_type;location;lat;lon;timestamp;pressure;altitude;pressure_sealevel;temperature;humidity
18022;BME280;9136;48.822;7.966;2023-04-01T00:02:42;98902.06;;;9.33;100.00
18022;BME280;9136;48.822;7.966;2023-04-01T00:05:31;98904.38;;;9.39;100.00
18022;BME280;9136;48.822;7.966;2023-04-01T00:08:19;98903.31;;;9.43;100.00
18022;BME280;9136;48.822;7.966;2023-04-01T00:11:07;98902.25;;;9.48;100.00
18022;BME280;9136;48.822;7.966;2023-04-01T00:13:55;98938.44;;;9.75;100.00
18022;BME280;9136;48.822;7.966;2023-04-01T00:16:45;98918.97;;;9.62;100.00
18022;BME280;9136;48.822;7.966;2023-04-01T00:19:32;98910.50;;;9.57;100.00
18022;BME280;9136;48.822;7.966;2023-04-01T00:22:20;98912.28;;;9.57;100.00
18022;BME280;9136;48.822;7.966;2023-04-01T00:25:09;98915.41;;;9.63;100.00
18022;BME280;9136;48.822;7.966;2023-04-01T00:27:57;98952.84;;;9.84;100.00
18022;BME280;9136;48.822;7.966;2023-04-01T00:30:45;98933.78;;;9.81;100.00
18022;BME280;9136;48.822;7.966;2023-04-01T00:33:37;98909.34;;;9.63;100.00
18022;BME280;9136;48.822;7.966;2023-04-01T00:36:25;98933.63;;;9.84;100.00
18022;BME280;9136;48.822;7.966;2023-04-01T00:39:13;98941.44;;;9.85;100.00
18022;BME280;9136;48.822;7.966;2023-04-01T00:42:01;98922.84;;;9.72;100.00
18022;BME280;9136;48.822;7.966;2023-04-01T00:44:51;98937.25;;;9.81;100.00
18022;BME280;9136;48.822;7.966;2023-04-01T00:47:39;98914.03;;;9.73;100.00
18022;BME280;9136;48.822;7.966;2023-04-01T00:50:28;98952.00;;;9.84;100.00
18022;BME280;9136;48.822;7.966;2023-04-01T00:53:19;98934.47;;;9.84;100.00
18022;BME280;9136;48.822;7.966;2023-04-01T00:56:11;98923.75;;;9.71;100.00
18022;BME280;9136;48.822;7.966;2023-04-01T00:59:02;98924.88;;;9.85;100.00
18022;BME280;9136;48.822;7.966;2023-04-01T01:01:54;98905.31;;;9.73;100.00
18022;BME280;9136;48.822;7.966;2023-04-01T01:04:42;98922.75;;;9.74;100.00
18022;BME280;9136;48.822;7.966;2023-04-01T01:07:38;98907.09;;;9.72;100.00
18022;BME280;9136;48.822;7.966;2023-04-01T01:10:31;98885.66;;;9.64;100.00
18022;BME280;9136;48.822;7.966;2023-04-01T01:13:24;98915.91;;;9.89;100.00
18022;BME280;9136;48.822;7.966;2023-04-01T01:16:22;98910.66;;;9.89;100.00
18022;BME280;9136;48.822;7.966;2023-04-01T01:19:30;98916.06;;;9.68;100.00
18022;BME280;9136;48.822;7.966;2023-04-01T01:22:33;98926.22;;;9.74;100.00
18022;BME280;9136;48.822;7.966;2023-04-01T01:25:33;98904.41;;;9.57;100.00
18022;BME280;9136;48.822;7.966;2023-04-01T01:28:36;98900.88;;;9.58;100.00
18022;BME280;9136;48.822;7.966;2023-04-01T01:31:37;98936.78;;;9.73;100.00
18022;BME280;9136;48.822;7.966;2023-04-01T01:34:34;98916.13;;;9.67;100.00
18022;BME280;9136;48.822;7.966;2023-04-01T01:37:27;98901.84;;;9.55;100.00
18022;BME280;9136;48.822;7.966;2023-04-01T01:40:17;98902.09;;;9.51;100.00
18022;BME280;9136;48.822;7.966;2023-04-01T01:43:08;98907.03;;;9.57;100.00
18022;BME280;9136;48.822;7.966;2023-04-01T01:46:00;98902.94;;;9.68;100.00
18022;BME280;9136;48.822;7.966;2023-04-01T01:48:52;98895.84;;;9.53;100.00
18022;BME280;9136;48.822;7.966;2023-04-01T01:51:40;98893.09;;;9.56;100.00
18022;BME280;9136;48.822;7.966;2023-04-01T01:54:30;98894.63;;;9.60;100.00
18022;BME280;9136;48.822;7.966;2023-04-01T01:57:22;98922.75;;;9.74;100.00
18022;BME280;9136;48.822;7.966;2023-04-01T02:00:12;98898.63;;;9.67;100.00
18022;BME280;9136;48.822;7.966;2023-04-01T02:03:00;98899.59;;;9.65;100.00
18022;BME280;9136;48.822;7.966;2023-04-01T02:05:49;98876.63;;;9.53;100.00
18022;BME280;9136;48.822;7.966;2023-04-01T02:08:40;98892.75;;;9.62;100.00
18022;BME280;9136;48.822;7.966;2023-04-01T02:11:34;98903.97;;;9.66;100.00
18022;BME280;9136;48.822;7.966;2023-04-01T02:14:24;98889.44;;;9.59;100.00
18022;BME280;9136;48.822;7.966;2023-04-01T02:17:15;98888.28;;;9.47;100.00
18022;BME280;9136;48.822;7.966;2023-04-01T02:20:06;98885.13;;;9.40;100.00
18022;BME280;9136;48.822;7.966;2023-04-01T02:22:56;98885.47;;;9.33;100.00
18022;BME280;9136;48.822;7.966;2023-04-01T02:25:46;98897.66;;;9.34;100.00
18022;BME280;9136;48.822;7.966;2023-04-01T02:28:37;98894.78;;;9.21;100.00
18022;BME280;9136;48.822;7.966;2023-04-01T02:31:26;98902.66;;;9.21;100.00
18022;BME280;9136;48.822;7.966;2023-04-01T02:34:15;98892.06;;;9.05;100.00
18022;BME280;9136;48.822;7.966;2023-04-01T02:37:03;98896.88;;;8.96;100.00
18022;BME280;9136;48.822;7.966;2023-04-01T02:39:51;98876.38;;;8.86;100.00
18022;BME280;9136;48.822;7.966;2023-04-01T02:42:39;98908.84;;;9.01;100.00
18022;BME280;9136;48.822;7.966;2023-04-01T02:45:29;98873.75;;;8.86;100.00
18022;BME280;9136;48.822;7.966;2023-04-01T02:48:16;98923.06;;;8.96;100.00
18022;BME280;9136;48.822;7.966;2023-04-01T02:51:04;98910.22;;;8.91;100.00
18022;BME280;9136;48.822;7.966;2023-04-01T02:53:52;98899.16;;;8.84;100.00
18022;BME280;9136;48.822;7.966;2023-04-01T02:56:40;98889.41;;;8.69;100.00
18022;BME280;9136;48.822;7.966;2023-04-01T02:59:27;98879.16;;;8.65;100.00
18022;BME280;9136;48.822;7.966;2023-04-01T03:02:17;98875.47;;;8.69;100.00
18022;BME280;9136;48.822;7.966;2023-04-01T03:05:06;98869.66;;;8.62;100.00
18022;BME280;9136;48.822;7.966;2023-04-01T03:07:55;98889.34;;;8.71;100.00
18022;BME280;9136;48.822;7.966;2023-04-01T03:10:43;98889.41;;;8.69;100.00
18022;BME280;9136;48.822;7.966;2023-04-01T03:13:31;98864.22;;;8.48;100.00
18022;BME280;9136;48.822;7.966;2023-04-01T03:16:19;98893.31;;;8.60;100.00
18022;BME280;9136;48.822;7.966;2023-04-01T03:19:08;98875.91;;;8.59;100.00
18022;BME280;9136;48.822;7.966;2023-04-01T03:21:56;98880.28;;;8.59;100.00
18022;BME280;9136;48.822;7.966;2023-04-01T03:24:44;98913.88;;;8.68;100.00
18022;BME280;9136;48.822;7.966;2023-04-01T03:27:32;98893.66;;;8.53;100.00
18022;BME280;9136;48.822;7.966;2023-04-01T03:30:20;98871.22;;;8.47;100.00
18022;BME280;9136;48.822;7.966;2023-04-01T03:33:08;98876.53;;;8.65;100.00
18022;BME280;9136;48.822;7.966;2023-04-01T03:35:57;98867.13;;;8.60;100.00
18022;BME280;9136;48.822;7.966;2023-04-01T03:38:45;98881.97;;;8.60;100.00
18022;BME280;9136;48.822;7.966;2023-04-01T03:41:35;98886.31;;;8.61;100.00
18022;BME280;9136;48.822;7.966;2023-04-01T03:44:23;98889.41;;;8.69;100.00
18022;BME280;9136;48.822;7.966;2023-04-01T03:47:11;98871.72;;;8.74;100.00
18022;BME280;9136;48.822;7.966;2023-04-01T03:49:59;98881.84;;;8.82;100.00
18022;BME280;9136;48.822;7.966;2023-04-01T03:52:48;98870.88;;;8.74;100.00
18022;BME280;9136;48.822;7.966;2023-04-01T03:55:37;98875.81;;;8.80;100.00
18022;BME280;9136;48.822;7.966;2023-04-01T03:58:27;98876.00;;;8.94;100.00
18022;BME280;9136;48.822;7.966;2023-04-01T04:01:16;98885.75;;;9.09;100.00
18022;BME280;9136;48.822;7.966;2023-04-01T04:04:05;98890.81;;;9.31;100.00
18022;BME280;9136;48.822;7.966;2023-04-01T04:06:53;98877.03;;;9.28;100.00
18022;BME280;9136;48.822;7.966;2023-04-01T04:09:42;98854.50;;;9.24;100.00
18022;BME280;9136;48.822;7.966;2023-04-01T04:12:30;98857.09;;;9.24;100.00
18022;BME280;9136;48.822;7.966;2023-04-01T04:15:18;98872.00;;;9.40;100.00
18022;BME280;9136;48.822;7.966;2023-04-01T04:18:06;98869.47;;;9.39;100.00
18022;BME280;9136;48.822;7.966;2023-04-01T04:20:54;98870.72;;;9.49;100.00
18022;BME280;9136;48.822;7.966;2023-04-01T04:23:43;98883.13;;;9.63;100.00
18022;BME280;9136;48.822;7.966;2023-04-01T04:26:32;98867.72;;;9.57;100.00
18022;BME280;9136;48.822;7.966;2023-04-01T04:29:20;98867.16;;;9.67;100.00
18022;BME280;9136;48.822;7.966;2023-04-01T04:32:08;98859.53;;;9.63;100.00
18022;BME280;9136;48.822;7.966;2023-04-01T04:34:56;98850.13;;;9.59;100.00
18022;BME280;9136;48.822;7.966;2023-04-01T04:37:44;98874.09;;;9.68;100.00
18022;BME280;9136;48.822;7.966;2023-04-01T04:40:32;98840.03;;;9.51;100.00
18022;BME280;9136;48.822;7.966;2023-04-01T04:43:21;98849.59;;;9.69;100.00
18022;BME280;9136;48.822;7.966;2023-04-01T04:46:10;98855.28;;;9.78;100.00
18022;BME280;9136;48.822;7.966;2023-04-01T04:48:58;98857.16;;;9.75;100.00
18022;BME280;9136;48.822;7.966;2023-04-01T04:51:46;98825.59;;;9.42;100.00
18022;BME280;9136;48.822;7.966;2023-04-01T04:54:34;98835.53;;;9.36;100.00
18022;BME280;9136;48.822;7.966;2023-04-01T04:57:22;98859.13;;;9.36;100.00
18022;BME280;9136;48.822;7.966;2023-04-01T05:00:17;98862.06;;;9.30;100.00
18022;BME280;9136;48.822;7.966;2023-04-01T05:03:09;98852.72;;;9.24;100.00
18022;BME280;9136;48.822;7.966;2023-04-01T05:05:57;98830.75;;;9.09;100.00
18022;BME280;9136;48.822;7.966;2023-04-01T05:08:46;98863.56;;;9.16;100.00
18022;BME280;9136;48.822;7.966;2023-04-01T05:11:34;98850.94;;;9.07;100.00
18022;BME280;9136;48.822;7.966;2023-04-01T05:14:21;98841.13;;;8.94;100.00
18022;BME280;9136;48.822;7.966;2023-04-01T05:17:12;98837.47;;;8.79;100.00
18022;BME280;9136;48.822;7.966;2023-04-01T05:20:02;98836.34;;;8.66;100.00
18022;BME280;9136;48.822;7.966;2023-04-01T05:22:55;98840.19;;;8.40;100.00
18022;BME280;9136;48.822;7.966;2023-04-01T05:25:45;98827.19;;;8.18;100.00
18022;BME280;9136;48.822;7.966;2023-04-01T05:28:32;98832.97;;;8.06;100.00
18022;BME280;9136;48.822;7.966;2023-04-01T05:31:28;98830.75;;;7.96;100.00
18022;BME280;9136;48.822;7.966;2023-04-01T05:34:18;98836.06;;;7.95;100.00
18022;BME280;9136;48.822;7.966;2023-04-01T05:37:06;98825.75;;;7.92;100.00
18022;BME280;9136;48.822;7.966;2023-04-01T05:39:54;98823.97;;;7.92;100.00
18022;BME280;9136;48.822;7.966;2023-04-01T05:42:41;98836.91;;;7.95;100.00
18022;BME280;9136;48.822;7.966;2023-04-01T05:45:29;98841.38;;;7.93;100.00
18022;BME280;9136;48.822;7.966;2023-04-01T05:48:17;98838.97;;;8.08;100.00
18022;BME280;9136;48.822;7.966;2023-04-01T05:51:14;98853.63;;;8.12;100.00
18022;BME280;9136;48.822;7.966;2023-04-01T05:54:04;98834.22;;;7.97;100.00
18022;BME280;9136;48.822;7.966;2023-04-01T05:56:52;98835.34;;;7.91;100.00
18022;BME280;9136;48.822;7.966;2023-04-01T05:59:41;98838.81;;;7.92;100.00
18022;BME280;9136;48.822;7.966;2023-04-01T06:02:30;98854.09;;;8.01;100.00
18022;BME280;9136;48.822;7.966;2023-04-01T06:05:21;98841.47;;;7.90;100.00
18022;BME280;9136;48.822;7.966;2023-04-01T06:08:16;98868.66;;;8.07;100.00
18022;BME280;9136;48.822;7.966;2023-04-01T06:11:24;98849.22;;;7.93;100.00
18022;BME280;9136;48.822;7.966;2023-04-01T06:14:22;98828.47;;;7.89;100.00
18022;BME280;9136;48.822;7.966;2023-04-01T06:17:22;98838.09;;;7.88;100.00
18022;BME280;9136;48.822;7.966;2023-04-01T06:20:19;98849.47;;;7.87;100.00
18022;BME280;9136;48.822;7.966;2023-04-01T06:23:24;98878.75;;;7.95;100.00
18022;BME280;9136;48.822;7.966;2023-04-01T06:26:23;98844.84;;;7.73;100.00
18022;BME280;9136;48.822;7.966;2023-04-01T06:33:13;98871.09;;;7.91;100.00
18022;BME280;9136;48.822;7.966;2023-04-01T06:36:19;98849.00;;;7.78;100.00
18022;BME280;9136;48.822;7.966;2023-04-01T06:39:32;98824.91;;;7.71;100.00
18022;BME280;9136;48.822;7.966;2023-04-01T06:42:57;98876.19;;;7.94;100.00
18022;BME280;9136;48.822;7.966;2023-04-01T06:45:54;98837.94;;;7.72;100.00
18022;BME280;9136;48.822;7.966;2023-04-01T06:49:05;98861.69;;;7.87;100.00
18022;BME280;9136;48.822;7.966;2023-04-01T06:51:59;98842.22;;;7.73;100.00
18022;BME280;9136;48.822;7.966;2023-04-01T06:54:55;98858.75;;;7.94;100.00
18022;BME280;9136;48.822;7.966;2023-04-01T06:57:47;98860.69;;;7.89;100.00
18022;BME280;9136;48.822;7.966;2023-04-01T07:00:39;98862.75;;;7.83;100.00
18022;BME280;9136;48.822;7.966;2023-04-01T07:03:32;98861.22;;;7.77;100.00
18022;BME280;9136;48.822;7.966;2023-04-01T07:06:28;98877.59;;;7.82;100.00
18022;BME280;9136;48.822;7.966;2023-04-01T07:09:20;98869.53;;;7.87;100.00
18022;BME280;9136;48.822;7.966;2023-04-01T07:12:16;98879.81;;;7.91;100.00
18022;BME280;9136;48.822;7.966;2023-04-01T07:15:15;98879.91;;;7.88;100.00
18022;BME280;9136;48.822;7.966;2023-04-01T07:18:10;98870.63;;;7.81;100.00
18022;BME280;9136;48.822;7.966;2023-04-01T07:21:00;98885.03;;;7.91;100.00
18022;BME280;9136;48.822;7.966;2023-04-01T07:23:50;98889.59;;;7.86;100.00
18022;BME280;9136;48.822;7.966;2023-04-01T07:26:39;98902.41;;;7.92;100.00
18022;BME280;9136;48.822;7.966;2023-04-01T07:29:28;98883.78;;;7.80;100.00
18022;BME280;9136;48.822;7.966;2023-04-01T07:32:33;98872.53;;;7.78;100.00
18022;BME280;9136;48.822;7.966;2023-04-01T07:35:31;98882.75;;;7.84;100.00
18022;BME280;9136;48.822;7.966;2023-04-01T07:38:30;98863.19;;;7.72;100.00
18022;BME280;9136;48.822;7.966;2023-04-01T07:41:31;98869.53;;;7.87;100.00
18022;BME280;9136;48.822;7.966;2023-04-01T07:44:27;98886.72;;;8.13;100.00
18022;BME280;9136;48.822;7.966;2023-04-01T07:50:30;98876.97;;;7.96;100.00
18022;BME280;9136;48.822;7.966;2023-04-01T07:53:23;98882.13;;;7.97;100.00
18022;BME280;9136;48.822;7.966;2023-04-01T07:56:17;98872.66;;;7.95;100.00
18022;BME280;9136;48.822;7.966;2023-04-01T07:59:12;98868.44;;;7.92;100.00
18022;BME280;9136;48.822;7.966;2023-04-01T08:02:10;98889.19;;;8.16;100.00
18022;BME280;9136;48.822;7.966;2023-04-01T08:05:11;98896.03;;;8.18;100.00
18022;BME280;9136;48.822;7.966;2023-04-01T08:08:08;98872.72;;;8.14;100.00
18022;BME280;9136;48.822;7.966;2023-04-01T08:11:03;98885.38;;;8.23;100.00
18022;BME280;9136;48.822;7.966;2023-04-01T08:13:58;98904.88;;;8.36;100.00
18022;BME280;9136;48.822;7.966;2023-04-01T08:16:56;98896.69;;;8.23;100.00
18022;BME280;9136;48.822;7.966;2023-04-01T08:19:58;98907.94;;;8.25;100.00
18022;BME280;9136;48.822;7.966;2023-04-01T08:22:57;98925.97;;;8.31;100.00
18022;BME280;9136;48.822;7.966;2023-04-01T08:25:50;98902.97;;;8.19;100.00
18022;BME280;9136;48.822;7.966;2023-04-01T08:28:45;98917.81;;;8.19;100.00
18022;BME280;9136;48.822;7.966;2023-04-01T08:31:37;98945.72;;;8.39;100.00
18022;BME280;9136;48.822;7.966;2023-04-01T08:34:32;98910.03;;;8.17;100.00
18022;BME280;9136;48.822;7.966;2023-04-01T08:37:25;98911.41;;;8.26;100.00
18022;BME280;9136;48.822;7.966;2023-04-01T08:40:41;98941.88;;;8.47;100.00
18022;BME280;9136;48.822;7.966;2023-04-01T08:47:09;98898.25;;;8.27;100.00
18022;BME280;9136;48.822;7.966;2023-04-01T08:50:23;98926.16;;;8.47;100.00
18022;BME280;9136;48.822;7.966;2023-04-01T08:53:21;98951.31;;;8.51;100.00
18022;BME280;9136;48.822;7.966;2023-04-01T08:56:18;98907.75;;;8.30;100.00
18022;BME280;9136;48.822;7.966;2023-04-01T08:59:26;98925.72;;;8.38;100.00
18022;BME280;9136;48.822;7.966;2023-04-01T09:02:36;98922.91;;;8.42;100.00
18022;BME280;9136;48.822;7.966;2023-04-01T09:05:36;98923.69;;;8.44;100.00
18022;BME280;9136;48.822;7.966;2023-04-01T09:08:34;98915.16;;;8.41;100.00
18022;BME280;9136;48.822;7.966;2023-04-01T09:11:33;98928.16;;;8.42;100.00
18022;BME280;9136;48.822;7.966;2023-04-01T09:14:43;98952.25;;;8.69;100.00
18022;BME280;9136;48.822;7.966;2023-04-01T09:17:53;98925.25;;;8.48;100.00
18022;BME280;9136;48.822;7.966;2023-04-01T09:21:08;98933.75;;;8.53;100.00
18022;BME280;9136;48.822;7.966;2023-04-01T09:24:25;98946.34;;;8.64;100.00
18022;BME280;9136;48.822;7.966;2023-04-01T09:27:26;98941.69;;;8.71;100.00
18022;BME280;9136;48.822;7.966;2023-04-01T09:30:41;98958.66;;;8.62;100.00
18022;BME280;9136;48.822;7.966;2023-04-01T09:33:49;98939.13;;;8.50;100.00
18022;BME280;9136;48.822;7.966;2023-04-01T09:36:46;98939.34;;;8.65;100.00
18022;BME280;9136;48.822;7.966;2023-04-01T09:39:36;98926.69;;;8.55;100.00
18022;BME280;9136;48.822;7.966;2023-04-01T09:42:41;98929.09;;;8.60;100.00
18022;BME280;9136;48.822;7.966;2023-04-01T09:45:51;98929.88;;;8.62;100.00
18022;BME280;9136;48.822;7.966;2023-04-01T09:49:07;98958.53;;;8.65;100.00
18022;BME280;9136;48.822;7.966;2023-04-01T09:52:18;98947.84;;;8.70;100.00
18022;BME280;9136;48.822;7.966;2023-04-01T09:55:27;98946.84;;;8.72;100.00
18022;BME280;9136;48.822;7.966;2023-04-01T09:58:50;98955.41;;;8.76;100.00
18022;BME280;9136;48.822;7.966;2023-04-01T10:12:28;98949.63;;;8.88;100.00
18022;BME280;9136;48.822;7.966;2023-04-01T10:15:37;98959.72;;;8.96;100.00
18022;BME280;9136;48.822;7.966;2023-04-01T10:18:55;98963.00;;;9.01;100.00
18022;BME280;9136;48.822;7.966;2023-04-01T10:22:09;98961.22;;;9.01;100.00
18022;BME280;9136;48.822;7.966;2023-04-01T10:25:27;98991.88;;;9.18;100.00
18022;BME280;9136;48.822;7.966;2023-04-01T10:28:48;98982.53;;;9.12;100.00
18022;BME280;9136;48.822;7.966;2023-04-01T10:32:10;99000.53;;;9.20;100.00
18022;BME280;9136;48.822;7.966;2023-04-01T10:42:27;98985.16;;;9.12;100.00
18022;BME280;9136;48.822;7.966;2023-04-01T10:45:38;98973.47;;;9.01;100.00
18022;BME280;9136;48.822;7.966;2023-04-01T10:55:56;98979.75;;;8.97;100.00
18022;BME280;9136;48.822;7.966;2023-04-01T10:59:20;98958.47;;;8.85;100.00
18022;BME280;9136;48.822;7.966;2023-04-01T11:02:38;98982.25;;;8.81;100.00
18022;BME280;9136;48.822;7.966;2023-04-01T11:06:22;98974.03;;;8.70;100.00
18022;BME280;9136;48.822;7.966;2023-04-01T11:09:50;98987.06;;;8.71;100.00
18022;BME280;9136;48.822;7.966;2023-04-01T11:16:52;98977.22;;;8.76;100.00
18022;BME280;9136;48.822;7.966;2023-04-01T11:26:33;98991.94;;;8.79;100.00
18022;BME280;9136;48.822;7.966;2023-04-01T11:29:48;98976.28;;;8.77;100.00
18022;BME280;9136;48.822;7.966;2023-04-01T11:32:46;99004.47;;;8.91;100.00
18022;BME280;9136;48.822;7.966;2023-04-01T11:35:57;99010.34;;;8.96;100.00
18022;BME280;9136;48.822;7.966;2023-04-01T11:39:03;98989.38;;;8.96;100.00
18022;BME280;9136;48.822;7.966;2023-04-01T11:42:01;99033.94;;;9.15;100.00
18022;BME280;9136;48.822;7.966;2023-04-01T11:45:00;99010.84;;;9.04;100.00
18022;BME280;9136;48.822;7.966;2023-04-01T11:48:04;98996.81;;;9.05;100.00
18022;BME280;9136;48.822;7.966;2023-04-01T11:51:11;98998.09;;;9.15;100.00
18022;BME280;9136;48.822;7.966;2023-04-01T11:54:18;99000.78;;;9.33;100.00
18022;BME280;9136;48.822;7.966;2023-04-01T11:57:31;99022.09;;;9.44;100.00
18022;BME280;9136;48.822;7.966;2023-04-01T12:00:40;99011.59;;;9.44;100.00
18022;BME280;9136;48.822;7.966;2023-04-01T12:07:06;99014.78;;;9.69;100.00
18022;BME280;9136;48.822;7.966;2023-04-01T12:10:15;99024.53;;;9.85;100.00
18022;BME280;9136;48.822;7.966;2023-04-01T12:13:14;98995.97;;;9.79;100.00
18022;BME280;9136;48.822;7.966;2023-04-01T12:16:15;99010.31;;;9.89;100.00
18022;BME280;9136;48.822;7.966;2023-04-01T12:19:11;99024.84;;;9.96;100.00
18022;BME280;9136;48.822;7.966;2023-04-01T12:22:29;99036.41;;;9.92;100.00
18022;BME280;9136;48.822;7.966;2023-04-01T12:25:29;99032.44;;;9.83;100.00
18022;BME280;9136;48.822;7.966;2023-04-01T12:28:29;99032.88;;;9.74;100.00
18022;BME280;9136;48.822;7.966;2023-04-01T12:31:39;99028.97;;;9.65;100.00
18022;BME280;9136;48.822;7.966;2023-04-01T12:34:49;99057.06;;;9.81;100.00
18022;BME280;9136;48.822;7.966;2023-04-01T12:37:50;99066.56;;;9.64;100.00
18022;BME280;9136;48.822;7.966;2023-04-01T12:41:05;99073.59;;;9.64;100.00
18022;BME280;9136;48.822;7.966;2023-04-01T12:44:33;99035.63;;;9.35;100.00
18022;BME280;9136;48.822;7.966;2023-04-01T12:47:51;99048.19;;;9.28;100.00
18022;BME280;9136;48.822;7.966;2023-04-01T12:51:20;99028.56;;;9.18;100.00
18022;BME280;9136;48.822;7.966;2023-04-01T12:54:39;99023.44;;;9.15;100.00
18022;BME280;9136;48.822;7.966;2023-04-01T13:00:59;99058.84;;;9.05;100.00
18022;BME280;9136;48.822;7.966;2023-04-01T13:04:03;99068.06;;;9.13;100.00
18022;BME280;9136;48.822;7.966;2023-04-01T13:07:06;99076.78;;;9.14;100.00
18022;BME280;9136;48.822;7.966;2023-04-01T13:10:04;99069.50;;;9.21;100.00
18022;BME280;9136;48.822;7.966;2023-04-01T13:13:15;99063.09;;;9.26;100.00
18022;BME280;9136;48.822;7.966;2023-04-01T13:16:11;99040.03;;;9.15;100.00
18022;BME280;9136;48.822;7.966;2023-04-01T13:19:06;99037.69;;;9.09;100.00
18022;BME280;9136;48.822;7.966;2023-04-01T13:22:01;99042.94;;;9.09;100.00
18022;BME280;9136;48.822;7.966;2023-04-01T13:24:55;99060.97;;;9.15;100.00
18022;BME280;9136;48.822;7.966;2023-04-01T13:27:49;99062.81;;;9.13;100.00
18022;BME280;9136;48.822;7.966;2023-04-01T13:30:47;99063.91;;;9.09;100.00
18022;BME280;9136;48.822;7.966;2023-04-01T13:33:44;99058.22;;;9.00;100.00
18022;BME280;9136;48.822;7.966;2023-04-01T13:36:41;99067.00;;;8.99;100.00
18022;BME280;9136;48.822;7.966;2023-04-01T13:39:46;99064.81;;;9.08;100.00
18022;BME280;9136;48.822;7.966;2023-04-01T13:42:45;99093.25;;;9.16;100.00
18022;BME280;9136;48.822;7.966;2023-04-01T13:45:42;99058.91;;;9.03;100.00
18022;BME280;9136;48.822;7.966;2023-04-01T13:49:00;99076.84;;;9.12;100.00
18022;BME280;9136;48.822;7.966;2023-04-01T13:55:39;99057.28;;;9.01;100.00
18022;BME280;9136;48.822;7.966;2023-04-01T14:01:54;99054.53;;;9.04;100.00
18022;BME280;9136;48.822;7.966;2023-04-01T14:04:53;99089.75;;;9.17;100.00
18022;BME280;9136;48.822;7.966;2023-04-01T14:07:56;99097.16;;;9.26;100.00
18022;BME280;9136;48.822;7.966;2023-04-01T14:10:50;99081.94;;;9.15;100.00
18022;BME280;9136;48.822;7.966;2023-04-01T14:13:50;99086.22;;;9.18;100.00
18022;BME280;9136;48.822;7.966;2023-04-01T14:17:17;99076.22;;;9.07;100.00
18022;BME280;9136;48.822;7.966;2023-04-01T14:20:29;99068.97;;;9.12;100.00
18022;BME280;9136;48.822;7.966;2023-04-01T14:30:15;99104.34;;;9.23;100.00
18022;BME280;9136;48.822;7.966;2023-04-01T14:33:26;99094.91;;;9.18;100.00
18022;BME280;9136;48.822;7.966;2023-04-01T14:36:35;99081.75;;;9.20;100.00
18022;BME280;9136;48.822;7.966;2023-04-01T14:39:54;99094.97;;;9.36;100.00
18022;BME280;9136;48.822;7.966;2023-04-01T14:43:06;99083.94;;;9.29;100.00
18022;BME280;9136;48.822;7.966;2023-04-01T14:46:12;99098.25;;;9.41;100.00
18022;BME280;9136;48.822;7.966;2023-04-01T14:49:15;99089.28;;;9.46;100.00
18022;BME280;9136;48.822;7.966;2023-04-01T14:52:11;99083.38;;;9.41;100.00
18022;BME280;9136;48.822;7.966;2023-04-01T14:55:00;99080.75;;;9.41;100.00
18022;BME280;9136;48.822;7.966;2023-04-01T14:58:00;99088.28;;;9.49;100.00
18022;BME280;9136;48.822;7.966;2023-04-01T15:01:01;99089.31;;;9.45;100.00
18022;BME280;9136;48.822;7.966;2023-04-01T15:04:05;99082.25;;;9.47;100.00
18022;BME280;9136;48.822;7.966;2023-04-01T15:07:05;99100.09;;;9.58;100.00
18022;BME280;9136;48.822;7.966;2023-04-01T15:10:04;99108.47;;;9.66;100.00
18022;BME280;9136;48.822;7.966;2023-04-01T15:13:07;99078.13;;;9.60;100.00
18022;BME280;9136;48.822;7.966;2023-04-01T15:16:09;99083.44;;;9.59;100.00
18022;BME280;9136;48.822;7.966;2023-04-01T15:19:08;99096.81;;;9.71;100.00
18022;BME280;9136;48.822;7.966;2023-04-01T15:22:17;99097.97;;;9.66;100.00
18022;BME280;9136;48.822;7.966;2023-04-01T15:25:29;99121.84;;;9.79;100.00
18022;BME280;9136;48.822;7.966;2023-04-01T15:28:28;99106.38;;;9.72;100.00
18022;BME280;9136;48.822;7.966;2023-04-01T15:31:21;99092.16;;;9.59;100.00
18022;BME280;9136;48.822;7.966;2023-04-01T15:34:32;99107.47;;;9.68;100.00
18022;BME280;9136;48.822;7.966;2023-04-01T15:37:32;99116.31;;;9.85;100.00
18022;BME280;9136;48.822;7.966;2023-04-01T15:40:28;99095.91;;;9.72;100.00
18022;BME280;9136;48.822;7.966;2023-04-01T15:43:27;99100.94;;;9.77;100.00
18022;BME280;9136;48.822;7.966;2023-04-01T15:46:41;99110.63;;;9.94;100.00
18022;BME280;9136;48.822;7.966;2023-04-01T15:49:36;99103.63;;;9.94;100.00
18022;BME280;9136;48.822;7.966;2023-04-01T15:52:37;99112.34;;;9.95;100.00
18022;BME280;9136;48.822;7.966;2023-04-01T15:55:37;99114.72;;;9.99;100.00
18022;BME280;9136;48.822;7.966;2023-04-01T15:58:47;99094.09;;;9.92;100.00
18022;BME280;9136;48.822;7.966;2023-04-01T16:01:44;99100.88;;;9.79;100.00
18022;BME280;9136;48.822;7.966;2023-04-01T16:04:55;99108.38;;;9.86;100.00
18022;BME280;9136;48.822;7.966;2023-04-01T16:07:57;99096.06;;;9.69;100.00
18022;BME280;9136;48.822;7.966;2023-04-01T16:11:07;99100.38;;;9.70;100.00
18022;BME280;9136;48.822;7.966;2023-04-01T16:14:09;99106.31;;;9.74;100.00
18022;BME280;9136;48.822;7.966;2023-04-01T16:17:09;99108.03;;;9.75;100.00
18022;BME280;9136;48.822;7.966;2023-04-01T16:20:06;99103.84;;;9.71;100.00
18022;BME280;9136;48.822;7.966;2023-04-01T16:23:08;99091.09;;;9.63;100.00
18022;BME280;9136;48.822;7.966;2023-04-01T16:26:05;99119.66;;;9.69;100.00
18022;BME280;9136;48.822;7.966;2023-04-01T16:28:57;99139.56;;;9.55;100.00
18022;BME280;9136;48.822;7.966;2023-04-01T16:31:53;99190.50;;;9.49;100.00
18022;BME280;9136;48.822;7.966;2023-04-01T16:34:46;99158.03;;;9.33;100.00
18022;BME280;9136;48.822;7.966;2023-04-01T16:37:41;99143.03;;;9.16;100.00
18022;BME280;9136;48.822;7.966;2023-04-01T16:40:40;99150.00;;;9.17;100.00
18022;BME280;9136;48.822;7.966;2023-04-01T16:43:38;99153.34;;;9.21;100.00
18022;BME280;9136;48.822;7.966;2023-04-01T16:46:32;99124.25;;;9.06;100.00
18022;BME280;9136;48.822;7.966;2023-04-01T16:49:36;99153.19;;;9.24;100.00
18022;BME280;9136;48.822;7.966;2023-04-01T16:52:42;99148.69;;;9.27;100.00
18022;BME280;9136;48.822;7.966;2023-04-01T16:55:44;99157.94;;;9.34;100.00
18022;BME280;9136;48.822;7.966;2023-04-01T16:58:36;99165.56;;;9.40;100.00
18022;BME280;9136;48.822;7.966;2023-04-01T17:01:29;99150.81;;;9.38;100.00